Highlands Peak, California Weather observations

Data are for observation ending at time listed.
 Day   Time    Ave.   Ave.  Ave.  Vector   Max.   Stn.    Total    Solar   Ave.  
  of    of     Air    Rel.  Wind   Wind    Wind   Baro.  Precip.   Rad.    Soil  
Year   Day     Temp.  Hum.  Speed  Dir.    Gust   Pres.                    Temp. 
2015   (PST)    F      %     mph   deg.    mph     mb.     in.     W/m2     F   
------------------------------------------------------------------------------
 183    9:50  99999.0   99999  99999.0   99999    99999.0   99999.0   99999.00   99999    99999.0
 183   10:00  99999.0   99999  99999.0   99999    99999.0   99999.0   99999.00   99999    99999.0
 183   10:10  99999.0   99999  99999.0   99999    99999.0   99999.0   99999.00   99999    99999.0
 183   10:20  99999.0   99999  99999.0   99999    99999.0   99999.0   99999.00   99999    99999.0
 183   10:30  99999.0   99999  99999.0   99999    99999.0   99999.0   99999.00   99999    99999.0
 183   10:40  99999.0   99999  99999.0   99999    99999.0   99999.0   99999.00   99999    99999.0
 183   10:50  99999.0   99999  99999.0   99999    99999.0   99999.0   99999.00   99999    99999.0
 183   11:00  99999.0   99999  99999.0   99999    99999.0   99999.0   99999.00   99999    99999.0
 183   11:10  99999.0   99999  99999.0   99999    99999.0   99999.0   99999.00   99999    99999.0
 183   11:20  99999.0   99999  99999.0   99999    99999.0   99999.0   99999.00   99999    99999.0
 183   11:30  99999.0   99999  99999.0   99999    99999.0   99999.0   99999.00   99999    99999.0
 183   11:40  99999.0   99999  99999.0   99999    99999.0   99999.0   99999.00   99999    99999.0
 183   11:50  99999.0   99999  99999.0   99999    99999.0   99999.0   99999.00   99999    99999.0
 183   12:00  99999.0   99999  99999.0   99999    99999.0   99999.0   99999.00   99999    99999.0
 183   12:10  99999.0   99999  99999.0   99999    99999.0   99999.0   99999.00   99999    99999.0
 183   12:20  99999.0   99999  99999.0   99999    99999.0   99999.0   99999.00   99999    99999.0
 183   12:30  99999.0   99999  99999.0   99999    99999.0   99999.0   99999.00   99999    99999.0
 183   12:40  99999.0   99999  99999.0   99999    99999.0   99999.0   99999.00   99999    99999.0
 183   12:50  99999.0   99999  99999.0   99999    99999.0   99999.0   99999.00   99999    99999.0
 183   13:00  99999.0   99999  99999.0   99999    99999.0   99999.0   99999.00   99999    99999.0
 183   13:10  99999.0   99999  99999.0   99999    99999.0   99999.0   99999.00   99999    99999.0
 183   13:20  99999.0   99999  99999.0   99999    99999.0   99999.0   99999.00   99999    99999.0
 183   13:30  99999.0   99999  99999.0   99999    99999.0   99999.0   99999.00   99999    99999.0
 183   13:40  99999.0   99999  99999.0   99999    99999.0   99999.0   99999.00   99999    99999.0
 183   13:50  99999.0   99999  99999.0   99999    99999.0   99999.0   99999.00   99999    99999.0
 183   14:00  99999.0   99999  99999.0   99999    99999.0   99999.0   99999.00   99999    99999.0
 183   14:10  99999.0   99999  99999.0   99999    99999.0   99999.0   99999.00   99999    99999.0
 183   14:20  99999.0   99999  99999.0   99999    99999.0   99999.0   99999.00   99999    99999.0
 183   14:30  99999.0   99999  99999.0   99999    99999.0   99999.0   99999.00   99999    99999.0
 183   14:40  99999.0   99999  99999.0   99999    99999.0   99999.0   99999.00   99999    99999.0
 183   14:50   70.6    55    2.8   289      4.3   930.4    0.00     591    87.8
 183   15:00   71.5    52    2.4   308      4.1   930.3    0.00     427    88.1
 183   15:10   71.4    51    2.1   304      4.1   930.2    0.00     605    88.3
 183   15:20   70.9    52    1.8   317      3.6   930.1    0.00     430    88.5
 183   15:30   71.7    51    1.2   295      3.1   930.1    0.00     573    88.8
 183   15:40  99999.0   99999  99999.0   99999    99999.0   99999.0   99999.00   99999    99999.0
 183   15:50   70.5    49    3.5   276      5.6   930.2    0.00     505    89.2
 183   16:00   71.1    44    2.4   270      4.5   930.1    0.00     496    89.3
 183   16:10   71.5    45    2.1   312      4.5   930.0    0.00     493    89.4
 183   16:20   72.2    46    3.0   298      5.8   929.9    0.00     611    89.5
 183   16:30   72.2    48    2.8   292      5.0   929.8    0.00     582    89.7
 183   16:40   72.1    49    2.8   290      5.3   929.7    0.00     503    89.8
 183   16:50   71.5    52    2.2   280      3.5   929.7    0.00     368    89.9
 183   17:00   70.3    55    2.1   263      4.2   929.7    0.00     313    90.1
 183   17:10   71.0    56    2.4   260      4.7   929.8    0.00     476    90.2
 183   17:20   71.5    55    0.7   254      3.1   929.9    0.00     426    90.3
 183   17:30   72.3    51    1.6    76      3.3   929.7    0.00     304    90.4
 183   17:40   73.0    50    1.8     3      4.6   929.7    0.00     249    90.5
 183   17:50   71.3    56    1.2   272      3.9   929.7    0.00     123    90.5
 183   18:00   70.3    57    1.7    55      2.9   929.5    0.00      79    90.6
 183   18:10   70.3    55    1.4   252      3.2   929.5    0.00      63    90.6
 183   18:20   69.0    60    1.2    92      2.6   929.5    0.00      69    90.5
 183   18:30   69.5    58    1.1   280      2.4   929.5    0.00      85    90.6
 183   18:40   69.5    56    1.8   228      3.2   929.6    0.00      96    90.5
 183   18:50   68.9    58    2.7    52      5.3   929.6    0.00      35    90.4
 183   19:00   67.5    59    2.7    44      4.8   929.6    0.00      22    90.4
 183   19:10   68.4    49    4.0    24      4.9   929.5    0.00      15    90.3
 183   19:20   69.3    44    2.7   317      3.1   929.5    0.00       9    90.2
 183   19:30   68.9    49    2.8   297      3.6   929.5    0.00       4    90.0
 183   19:40   68.3    49    3.2   310      3.7   929.5    0.00       2    89.9
 183   19:50   67.9    41    3.4   322      3.9   929.5    0.00       1    89.7
 183   20:00   68.3    33    4.1   308      4.7   929.4    0.00       0    89.6
 183   20:10   68.0    34    3.4   316      4.2   929.4    0.00       0    89.4
 183   20:20   67.7    32    4.1   320      4.7   929.4    0.00       0    89.3
 183   20:30   68.8    31    3.1   313      3.8   929.5    0.00       0    89.0
 183   20:40   69.3    34    3.1   291      3.7   929.6    0.00       0    88.8
 183   20:50   69.0    38    2.3   297      2.9   929.6    0.00       0    88.6
 183   21:00   68.2    37    3.8   324      4.5   929.6    0.00       0    88.4
 183   21:10   68.7    30    3.9   323      4.5   929.6    0.00       0    88.2
 183   21:20   69.3    28    2.4   300      3.9   929.5    0.00       0    88.1
 183   21:30   70.0    28    2.1   316      3.2   929.5    0.00       0    87.8
 183   21:40   70.2    27    2.6   283      4.2   929.5    0.00       0    87.5
 183   21:50  99999.0   99999  99999.0   99999    99999.0   99999.0   99999.00   99999    99999.0
 183   22:00  99999.0   99999  99999.0   99999    99999.0   99999.0   99999.00   99999    99999.0
 183   22:10  99999.0   99999  99999.0   99999    99999.0   99999.0   99999.00   99999    99999.0
 183   22:20  99999.0   99999  99999.0   99999    99999.0   99999.0   99999.00   99999    99999.0
 183   22:30  99999.0   99999  99999.0   99999    99999.0   99999.0   99999.00   99999    99999.0
 183   22:40  99999.0   99999  99999.0   99999    99999.0   99999.0   99999.00   99999    99999.0
 183   22:50  99999.0   99999  99999.0   99999    99999.0   99999.0   99999.00   99999    99999.0
 183   23:00  99999.0   99999  99999.0   99999    99999.0   99999.0   99999.00   99999    99999.0
 183   23:10  99999.0   99999  99999.0   99999    99999.0   99999.0   99999.00   99999    99999.0
 183   23:20  99999.0   99999  99999.0   99999    99999.0   99999.0   99999.00   99999    99999.0
 183   23:30  99999.0   99999  99999.0   99999    99999.0   99999.0   99999.00   99999    99999.0
 183   23:40  99999.0   99999  99999.0   99999    99999.0   99999.0   99999.00   99999    99999.0
 183   23:50   70.1    24    3.9   324      4.5   929.8    0.00       0    85.0
 184    0:00   70.0    23    3.1   327      3.8   929.8    0.00       0    84.9
 184    0:10   70.1    24    3.1   327      3.7   929.8    0.00       0    84.8
 184    0:20   70.8    22    2.2   337      2.9   929.8    0.00       0    84.6
 184    0:30   71.4    22    1.3   291      2.0   929.9    0.00       0    84.4
 184    0:40  99999.0   99999  99999.0   99999    99999.0   99999.0   99999.00   99999    99999.0
 184    0:50   69.7    38    3.3    74      5.3   929.6    0.00       0    84.0
 184    1:00   69.0    36    3.3     2      4.1   929.5    0.00       0    83.9
 184    1:10   69.8    25    4.3   338      6.4   929.4    0.00       0    83.8
 184    1:20   70.6    27    4.7   353      6.2   929.3    0.00       0    83.7
 184    1:30   70.6    30    4.9   343      5.6   929.2    0.00       0    83.6
 184    1:40   71.2    36    5.3    10      6.6   929.1    0.00       0    83.5
 184    1:50   72.0    33    5.1    16      6.4   929.1    0.00       0    83.2
 184    2:00   71.1    33    3.1   342      5.0   929.2    0.00       0    83.0
 184    2:10   70.2    37    3.6    53      5.1   929.1    0.00       0    82.8
 184    2:20   69.6    37    4.3    32      6.1   928.9    0.00       0    82.7
 184    2:30   71.3    32    6.1   346      7.5   928.8    0.00       0    82.7
 184    2:40   71.6    31    5.3   339      6.9   928.8    0.00       0    82.6
 184    2:50   70.7    30    4.2   301      6.4   928.8    0.00       0    82.4
 184    3:00   69.3    32    2.9   306      5.1   928.8    0.00       0    82.2
 184    3:10   68.6    35    4.2    51      5.6   928.7    0.00       0    82.1
 184    3:20   69.1    36    5.7    67      7.6   928.6    0.00       0    81.8
 184    3:30   70.7    31    5.3    51      7.8   928.6    0.00       0    81.6
 184    3:40   72.7    27    4.2     2      8.6   928.6    0.00       0    81.5
 184    3:50   71.0    31    5.5   201      7.3   928.8    0.00       0    81.3
 184    4:00   67.0    39    3.1   180      5.3   929.0    0.00       0    81.3
 184    4:10   66.1    43    1.8   136      3.6   928.9    0.00       0    81.3
 184    4:20   66.1    40    6.9    80      9.5   928.9    0.00       0    81.2
 184    4:30   67.9    34    7.0    64      8.6   928.8    0.00       0    80.8
 184    4:40   70.6    27    5.5     9      6.9   928.9    0.00       0    80.6
 184    4:50   71.2    22    3.2   306      7.7   929.1    0.00       1    80.6
 184    5:00   70.5    27    1.7   307      5.4   929.1    0.00       4    80.4
 184    5:10   69.9    31    4.5    63      5.8   929.1    0.00       7    80.3
 184    5:20   70.1    29    4.0    35      5.4   929.1    0.00      12    80.2
 184    5:30   69.6    31    3.2    72      4.9   929.3    0.00      16    80.1
 184    5:40   68.9    34    2.8    86      4.5   929.3    0.00      19    80.0
 184    5:50   67.7    35    1.0   256      2.0   929.5    0.00      22    79.8
 184    6:00   67.3    36    2.3    80      3.8   929.5    0.00      78    79.8
 184    6:10   68.3    36    4.2    78      5.2   929.5    0.00     203    79.7
 184    6:20   70.0    32    4.1    53      4.9   929.5    0.00     240    79.6
 184    6:30   72.0    30    1.8   270      3.2   929.6    0.00     277    79.4
 184    6:40   70.3    35    1.9   360      4.7   929.6    0.00     314    79.2
 184    6:50   71.0    36    4.7    69      5.8   929.5    0.00     351    79.2
 184    7:00   71.7    34    1.5   323      3.2   929.6    0.00     388    79.1
 184    7:10   72.4    35    2.1    35      3.2   929.6    0.00     425    79.1
 184    7:20   74.3    33    1.6    30      3.6   929.6    0.00     462    79.1
 184    7:30   71.9    32    1.5   262      3.3   929.7    0.00     497    79.0
 184    7:40   72.6    30    0.8   331      1.9   929.7    0.00     514    79.0
 184    7:50   73.7    34    0.6   330      2.1   929.8    0.00     564    79.0
 184    8:00   73.8    25    1.4   278      2.1   929.9    0.00     598    79.0
 184    8:10   73.6    23    2.6   292      3.9   930.0    0.00     630    79.0
 184    8:20   73.3    26    2.5   283      3.7   930.0    0.00     663    79.1
 184    8:30   73.5    29    1.7   289      2.6   930.0    0.00     694    79.1
 184    8:40   73.6    28    2.1   282      3.0   930.0    0.00     725    79.2
 184    8:50   74.0    34    1.9   306      2.8   929.9    0.00     753    79.3
 184    9:00   74.9    30    2.3   283      4.3   929.9    0.00     783    79.5
 184    9:10   73.8    30    2.7   274      3.8   929.9    0.00     817    79.7
 184    9:20   73.9    30    1.9   283      3.1   929.9    0.00     852    79.9
 184    9:30   74.9    30    2.8   278      4.2   929.8    0.00     881    80.1
 184    9:40   74.8    26    2.5   281      3.9   929.8    0.00     908    80.3

Return to Highlands Peak graphs page.


Western Regional Climate Center,wrcc@dri.edu